ADDS METAR Data INFO
IDs: Format: Raw Decoded Include TAF

Data at: 2222 UTC 22 Aug 2017

KPKV 222215Z AUTO 12013KT 10SM CLR 32/23 A2999 RMK AO2 T03230229
KPKV 222155Z AUTO 11014KT 10SM CLR 33/23 A2999 RMK AO2 T03250226
KPKV 222135Z AUTO 11014G19KT 10SM CLR 33/22 A2999 RMK AO2 T03300224
KPKV 222115Z AUTO 12011KT 10SM CLR 33/22 A2999 RMK AO2 T03330224
KPKV 222055Z AUTO 11014KT 10SM CLR 33/21 A3000 RMK AO2 T03320208
KPKV 222035Z AUTO 11012KT 10SM CLR 33/21 A3001 RMK AO2 T03340207
KPKV 222015Z AUTO 12011KT 10SM CLR 34/20 A3001 RMK AO2 T03380203
KPKV 221955Z AUTO 12011KT 10SM CLR 33/20 A3002 RMK AO2 T03340198
KPKV 221935Z AUTO 10011G18KT 10SM CLR 33/21 A3003 RMK AO2 T03320213
KPKV 221915Z AUTO 10012KT 10SM CLR 34/20 A3003 RMK AO2 T03350203
KPKV 221855Z AUTO 11009KT 10SM CLR 33/20 A3004 RMK AO2 T03330196
KPKV 221835Z AUTO 10010KT 10SM CLR 33/21 A3005 RMK AO2 T03280210
KPKV 221815Z AUTO 12009G14KT 10SM SCT040 33/22 A3005 RMK AO2 T03290221
KPKV 221755Z AUTO 11008KT 10SM SCT034 SCT040 33/24 A3005 RMK AO2 T03290235 10330 20232
KPKV 221735Z AUTO 11004KT 10SM CLR 32/22 A3006 RMK AO2 T03160219
KPKV 221715Z AUTO 07007KT 10SM CLR 32/22 A3006 RMK AO2 T03220223
KPKV 221655Z AUTO 10009KT 10SM CLR 32/22 A3007 RMK AO2 T03210219
KPKV 221635Z AUTO 12004KT 10SM CLR 32/21 A3007 RMK AO2 T03190214
KPKV 221615Z AUTO 11005KT 10SM SCT031 SCT038 32/22 A3007 RMK AO2 T03150222
KPKV 221555Z AUTO 11006KT 10SM SCT027 31/23 A3007 RMK AO2 T03100230
KPKV 221535Z AUTO 08006KT 10SM SCT023 SCT028 30/23 A3006 RMK AO2 T03040234
KPKV 221515Z AUTO 00000KT 10SM SCT021 SCT025 30/24 A3006 RMK AO2 T03040238
KPKV 221455Z AUTO 04004KT 10SM SCT019 30/24 A3006 RMK AO2 T02990241
KPKV 221435Z AUTO 09003KT 10SM SCT017 29/24 A3005 RMK AO2 T02940242
KPKV 221415Z AUTO 00000KT 10SM CLR 29/24 A3005 RMK AO2 T02850241
KPKV 221355Z AUTO 04004KT 10SM CLR 28/24 A3005 RMK AO2 T02750242
KPKV 221335Z AUTO 03004KT 10SM CLR 27/24 A3004 RMK AO2 T02650241
KPKV 221318Z AUTO 36003KT 10SM CLR 26/24 A3003 RMK AO2
KPKV 221258Z AUTO 36003KT 10SM CLR 24/23 A3003 RMK AO2
KPKV 221238Z AUTO 02003KT 10SM CLR 24/22 A3002 RMK AO2
KPKV 221217Z AUTO 34004KT 10SM CLR 24/22 A3002 RMK AO2
KPKV 221158Z AUTO 00000KT 10SM CLR 24/22 A3002 RMK AO2
KPKV 221138Z AUTO 00000KT 10SM CLR 23/22 A3001 RMK AO2
KPKV 221117Z AUTO 31003KT 10SM CLR 24/22 A3001 RMK AO2
KPKV 221057Z AUTO 00000KT 10SM CLR 24/22 A3001 RMK AO2
KPKV 221037Z AUTO 00000KT 10SM CLR 24/22 A3001 RMK AO2
KPKV 221018Z AUTO 00000KT 10SM CLR 24/22 A3001 RMK AO2
KPKV 220937Z AUTO 00000KT 10SM CLR 24/22 A3002 RMK AO2
KPKV 220918Z AUTO 00000KT 10SM CLR 24/22 A3002 RMK AO2
KPKV 220858Z AUTO 00000KT 10SM CLR 24/22 A3002 RMK AO2
KPKV 220839Z AUTO 00000KT 10SM CLR 24/22 A3003 RMK AO2
KPKV 220815Z AUTO 00000KT 10SM CLR 25/23 A3002 RMK AO2 T02500231
KPKV 220755Z AUTO 00000KT 10SM CLR 25/23 A3003 RMK AO2 T02500231
KPKV 220735Z AUTO 00000KT 10SM CLR 26/23 A3004 RMK AO2 T02550234
KPKV 220715Z AUTO 00000KT 10SM CLR 26/23 A3004 RMK AO2 T02550232
KPKV 220658Z AUTO 00000KT 10SM CLR 26/23 A3005 RMK AO2
KPKV 220640Z AUTO 00000KT 10SM CLR 26/23 A3005 RMK AO2 T02600233
KPKV 220615Z AUTO 15003KT 10SM CLR 26/23 A3006 RMK AO2 T02600234
KPKV 220550Z AUTO 15003KT 10SM CLR 26/24 A3007 RMK AO2 T02630235 10306 20261 403300241
KPKV 220535Z AUTO 14004KT 10SM CLR 26/24 A3007 RMK AO2 T02630235
KPKV 220520Z AUTO 15005KT 10SM CLR 27/24 A3007 RMK AO2 T02650235
KPKV 220455Z AUTO 15005KT 10SM CLR 27/23 A3007 RMK AO2 T02680234
KPKV 220435Z AUTO 14005KT 10SM CLR 27/23 A3007 RMK AO2 T02710233
KPKV 220415Z AUTO 14007KT 10SM CLR 28/23 A3007 RMK AO2 T02750233
KPKV 220355Z AUTO 14008KT 10SM CLR 28/23 A3007 RMK AO2 T02750233
KPKV 220330Z AUTO 14008KT 10SM CLR 28/23 A3006 RMK AO2 T02750230
KPKV 220315Z AUTO 14007KT 10SM CLR 28/23 A3006 RMK AO2 T02750227
KPKV 220255Z AUTO 14007KT 10SM CLR 28/23 A3005 RMK AO2 T02760230
KPKV 220237Z AUTO 14009KT 10SM CLR 28/23 A3005 RMK AO2
KPKV 220218Z AUTO 14007KT 10SM CLR 28/23 A3004 RMK AO2
KPKV 220150Z AUTO 14008KT 10SM CLR 28/23 A3003 RMK AO2 T02800226
KPKV 220140Z AUTO 14008KT 10SM CLR 28/23 A3003 RMK AO2 T02820225
KPKV 220115Z AUTO 13009KT 10SM CLR 29/23 A3002 RMK AO2 T02850225
KPKV 220037Z AUTO 12010KT 10SM CLR 30/23 A3002 RMK AO2
KPKV 212358Z AUTO 12012G17KT 10SM CLR 31/23 A3001 RMK AO2
KPKV 212338Z AUTO 13013KT 10SM CLR 31/22 A3001 RMK AO2
KPKV 212258Z AUTO 11011KT 10SM CLR 32/23 A3000 RMK AO2
KPKV 212238Z AUTO 12012KT 10SM CLR 32/23 A3000 RMK AO2
KPKV 212218Z AUTO 11013KT 10SM CLR 32/23 A3001 RMK AO2
KPKV 212155Z AUTO 12011KT 10SM CLR 32/22 A3001 RMK AO2 T03210221
KPKV 212135Z AUTO 12010G18KT 10SM CLR 33/21 A3001 RMK AO2 T03250214
KPKV 212115Z AUTO 11012KT 10SM CLR 33/22 A3002 RMK AO2 T03270216
KPKV 212055Z AUTO 11011G15KT 10SM CLR 33/22 A3002 RMK AO2 T03250217
KPKV 212035Z AUTO 11010G15KT 10SM CLR 33/21 A3002 RMK AO2 T03270214
KPKV 212015Z AUTO 12012G17KT 10SM CLR 32/22 A3003 RMK AO2 T03230218
KPKV 211955Z AUTO 11012G17KT 10SM CLR 32/23 A3003 RMK AO2 T03220231
KPKV 211935Z AUTO 12011G14KT 10SM CLR 32/23 A3004 RMK AO2 T03230229
KPKV 211915Z AUTO 13010G15KT 10SM CLR 32/23 A3004 RMK AO2 T03150229
KPKV 211855Z AUTO 11011KT 10SM CLR 31/23 A3004 RMK AO2 T03120232
KPKV 211835Z AUTO 12010KT 10SM CLR 31/23 A3004 RMK AO2 T03090227
KPKV 211815Z AUTO 12012KT 10SM CLR 31/22 A3005 RMK AO2 T03120219
KPKV 211755Z AUTO 11011KT 10SM CLR 32/20 A3005 RMK AO2 T03200204 10326 20243
KPKV 211735Z AUTO 12009KT 10SM CLR 32/21 A3005 RMK AO2 T03220210
KPKV 211715Z AUTO 09009KT 10SM CLR 32/22 A3006 RMK AO2 T03240222
KPKV 211655Z AUTO 08008KT 10SM CLR 33/21 A3006 RMK AO2 T03260213
KPKV 211635Z AUTO 11007KT 10SM SCT028 SCT033 32/23 A3006 RMK AO2 T03190233
KPKV 211615Z AUTO 13007KT 10SM SCT025 SCT030 SCT041 31/23 A3006 RMK AO2 T03140233
KPKV 211555Z AUTO 11005KT 10SM SCT025 31/24 A3006 RMK AO2 T03140240
KPKV 211535Z AUTO 09005KT 10SM CLR 31/24 A3006 RMK AO2 T03050243
KPKV 211515Z AUTO 08007KT 10SM SCT021 SCT030 BKN055 31/24 A3006 RMK AO2 T03050242
KPKV 211455Z AUTO 03007KT 10SM SCT023 30/25 A3006 RMK AO2 T02960246
KPKV 211435Z AUTO 05003KT 10SM CLR 29/25 A3005 RMK AO2 T02930247
KPKV 211415Z AUTO 04008KT 10SM CLR 29/25 A3005 RMK AO2 T02850248
KPKV 211355Z AUTO 05004KT 10SM CLR 27/25 A3005 RMK AO2 T02730246
KPKV 211335Z AUTO 03003KT 10SM CLR 25/24 A3005 RMK AO2 T02540236
KPKV 211315Z AUTO 00000KT 10SM CLR 25/23 A3004 RMK AO2 T02450230
KPKV 211300Z AUTO 01003KT 10SM CLR 24/23 A3004 RMK AO2 T02440226
KPKV 211238Z AUTO 34003KT 10SM CLR 24/23 A3003 RMK AO2
KPKV 211218Z AUTO 33004KT 10SM CLR 25/23 A3003 RMK AO2
KPKV 211155Z AUTO 00000KT 10SM CLR 25/23 A3003 RMK AO2 T02450225 10261 20241
KPKV 211137Z AUTO 00000KT 10SM CLR 25/23 A3003 RMK AO2
KPKV 211115Z AUTO 00000KT 10SM CLR 24/22 A3002 RMK AO2 T02410221
KPKV 211055Z AUTO 00000KT 10SM CLR 25/23 A3002 RMK AO2 T02530233
KPKV 211035Z AUTO 00000KT 10SM CLR 25/23 A3002 RMK AO2 T02520232